Time;durP1;ratioP1;P1;durP2;ratioP2;P2;SDS_P1;SDS_P2;PMS_P1;PMS_P2;Temp;Humidity;BMP_temperature;BMP_pressure;BME280_temperature;BME280_humidity;BME280_pressure;Samples;Min_cycle;Max_cycle;Signal;HPM_P1;HPM_P2
2023/12/04 00:00:23;;;;;;;27.83;10.05;;;-7.70;99.90;;;;;;4954939;28;20122;-76
2023/12/04 00:02:48;;;;;;;27.95;10.57;;;-7.80;99.90;;;;;;4957913;28;20106;-76
2023/12/04 00:05:14;;;;;;;33.35;10.70;;;-7.40;99.90;;;;;;4956658;28;20031;-76
2023/12/04 00:07:40;;;;;;;23.83;8.43;;;-7.90;99.90;;;;;;4956242;28;20034;-76
2023/12/04 00:10:06;;;;;;;26.75;10.32;;;-7.90;99.90;;;;;;4956337;28;20036;-76
2023/12/04 00:12:32;;;;;;;33.58;11.18;;;-7.90;99.90;;;;;;4957986;28;20049;-78
2023/12/04 00:14:57;;;;;;;27.20;9.68;;;-7.30;99.90;;;;;;4958075;28;20029;-78
2023/12/04 00:17:23;;;;;;;32.50;11.10;;;-7.70;99.90;;;;;;4955307;28;20035;-78
2023/12/04 00:19:49;;;;;;;32.28;11.75;;;-7.60;99.90;;;;;;4960197;28;20050;-76
2023/12/04 00:22:14;;;;;;;29.50;10.20;;;-7.60;99.90;;;;;;4956085;28;20409;-77
2023/12/04 00:24:40;;;;;;;29.40;9.85;;;-7.60;99.90;;;;;;4957651;28;20027;-77
2023/12/04 00:27:05;;;;;;;24.58;10.73;;;-7.60;99.90;;;;;;4959797;28;20318;-76
2023/12/04 00:29:31;;;;;;;29.10;10.90;;;-7.60;99.90;;;;;;4958028;28;20392;-75
2023/12/04 00:31:57;;;;;;;30.10;11.65;;;-7.60;99.90;;;;;;4955826;28;20038;-76
2023/12/04 00:34:22;;;;;;;28.77;10.77;;;-7.70;99.90;;;;;;4954764;28;20055;-76
2023/12/04 00:36:48;;;;;;;29.88;10.13;;;-5.90;99.90;;;;;;4955747;28;20535;-76
2023/12/04 00:39:14;;;;;;;30.08;11.20;;;-7.60;99.90;;;;;;4955789;28;20062;-76
2023/12/04 00:41:39;;;;;;;26.25;10.45;;;-7.50;99.90;;;;;;4956072;28;20027;-75
2023/12/04 00:44:08;;;;;;;23.58;9.80;;;-5.60;99.90;;;;;;4961211;28;20091;-76
2023/12/04 00:46:34;;;;;;;24.23;9.27;;;-7.50;99.90;;;;;;4956020;28;20035;-76
2023/12/04 00:48:59;;;;;;;24.75;10.18;;;-7.50;99.90;;;;;;4954846;28;20050;-77
2023/12/04 00:51:26;;;;;;;38.65;12.60;;;-7.50;99.90;;;;;;4956486;28;20055;-79
2023/12/04 00:53:51;;;;;;;28.10;10.77;;;-7.40;99.90;;;;;;4938954;28;20031;-80
2023/12/04 00:56:19;;;;;;;28.10;10.75;;;-7.40;99.90;;;;;;4938840;28;20031;-79
2023/12/04 00:58:45;;;;;;;32.00;11.82;;;-5.60;99.90;;;;;;4956281;28;20508;-78
2023/12/04 01:01:10;;;;;;;27.60;12.18;;;-7.50;99.90;;;;;;4955848;28;20049;-76
2023/12/04 01:03:38;;;;;;;32.88;11.43;;;-7.40;99.90;;;;;;4957781;28;20027;-76
2023/12/04 01:06:03;;;;;;;29.50;11.52;;;-7.40;99.90;;;;;;4955548;28;20027;-79
2023/12/04 01:08:29;;;;;;;31.13;10.95;;;-7.40;99.90;;;;;;4955559;28;20353;-78
2023/12/04 01:10:55;;;;;;;33.53;11.27;;;-7.50;99.90;;;;;;4955439;28;20042;-80
2023/12/04 01:13:20;;;;;;;29.80;10.25;;;-7.50;99.90;;;;;;4955393;28;20365;-77
2023/12/04 01:15:48;;;;;;;29.85;10.80;;;-6.70;99.90;;;;;;4957413;28;20031;-77
2023/12/04 01:18:14;;;;;;;34.63;12.70;;;-7.30;99.90;;;;;;4939353;28;20024;-79
2023/12/04 01:20:40;;;;;;;33.45;11.73;;;-6.60;99.90;;;;;;4942021;29;20034;-76
2023/12/04 01:23:05;;;;;;;34.95;13.40;;;-7.20;99.90;;;;;;4943930;28;20019;-79
2023/12/04 01:25:31;;;;;;;34.55;11.25;;;-7.10;99.90;;;;;;4941931;28;20034;-76
2023/12/04 01:27:56;;;;;;;33.70;10.52;;;-5.60;99.90;;;;;;4943702;29;20027;-77
2023/12/04 01:30:22;;;;;;;28.13;10.13;;;-7.20;99.90;;;;;;4941821;28;20042;-76
2023/12/04 01:32:48;;;;;;;28.23;11.10;;;-5.40;99.90;;;;;;4941584;28;20122;-77
2023/12/04 01:35:13;;;;;;;36.88;13.23;;;-7.30;99.90;;;;;;4941832;28;20027;-77
2023/12/04 01:37:39;;;;;;;34.67;13.23;;;-7.30;99.90;;;;;;4959177;28;20019;-77
2023/12/04 01:40:06;;;;;;;22.60;9.55;;;-6.00;99.90;;;;;;4945019;28;20070;-77
2023/12/04 01:42:32;;;;;;;22.10;9.48;;;-7.20;99.90;;;;;;4958977;28;20031;-77
2023/12/04 01:44:58;;;;;;;27.38;9.50;;;-7.30;99.90;;;;;;4959686;28;20027;-76
2023/12/04 01:47:24;;;;;;;35.08;12.65;;;-6.90;99.90;;;;;;4942463;28;20491;-79
2023/12/04 01:49:50;;;;;;;34.03;11.90;;;-7.20;99.90;;;;;;4941626;29;20140;-76
2023/12/04 01:52:16;;;;;;;31.55;10.48;;;-7.20;99.90;;;;;;4958769;28;20131;-80
2023/12/04 01:54:43;;;;;;;27.38;11.63;;;-6.40;99.90;;;;;;4959331;28;20023;-79
2023/12/04 01:57:09;;;;;;;28.13;10.70;;;-7.20;99.90;;;;;;4958761;28;20031;-76
2023/12/04 01:59:35;;;;;;;30.30;10.65;;;-7.20;99.90;;;;;;4958677;28;20019;-78
2023/12/04 02:02:02;;;;;;;29.60;10.25;;;-7.20;99.90;;;;;;4961055;28;20039;-79
2023/12/04 02:04:27;;;;;;;29.20;10.05;;;-7.20;99.90;;;;;;4958546;28;20025;-79
2023/12/04 02:06:53;;;;;;;31.50;11.60;;;-7.20;99.90;;;;;;4941371;29;20039;-78
2023/12/04 02:09:19;;;;;;;28.77;10.63;;;-7.20;99.90;;;;;;4958802;28;20028;-78
2023/12/04 02:11:45;;;;;;;27.33;11.45;;;-7.30;99.90;;;;;;4958409;28;20071;-78
2023/12/04 02:14:11;;;;;;;36.03;12.18;;;-7.30;99.90;;;;;;4958369;28;20035;-78
2023/12/04 02:16:40;;;;;;;29.77;11.63;;;-7.10;99.90;;;;;;4959664;28;20087;-76
2023/12/04 02:19:07;;;;;;;;;;;-6.10;99.90;;;;;;4957808;28;20106;-78
2023/12/04 02:21:33;;;;;;;29.63;11.15;;;-7.20;99.90;;;;;;4958461;28;19907;-76
2023/12/04 02:23:58;;;;;;;30.38;12.88;;;-7.30;99.90;;;;;;4940861;28;20032;-78
2023/12/04 02:26:29;;;;;;;25.15;11.38;;;-6.80;99.90;;;;;;4960702;28;20158;-78
2023/12/04 02:29:00;;;;;;;28.73;10.90;;;-6.60;99.90;;;;;;4959535;28;20031;-78
2023/12/04 02:31:29;;;;;;;28.58;10.43;;;-7.30;99.90;;;;;;4959380;28;20046;-79
2023/12/04 02:33:57;;;;;;;30.73;11.30;;;-7.20;99.90;;;;;;4943290;28;20169;-78
2023/12/04 02:36:25;;;;;;;25.60;10.05;;;-7.30;99.90;;;;;;4958621;28;20050;-79
2023/12/04 02:38:52;;;;;;;29.02;9.45;;;-7.30;99.90;;;;;;4960007;28;20244;-77
2023/12/04 02:41:18;;;;;;;33.08;11.40;;;-7.30;99.90;;;;;;4956549;28;20480;-79
2023/12/04 02:43:43;;;;;;;27.65;9.85;;;-6.10;99.90;;;;;;4940716;29;20118;-79
2023/12/04 02:46:09;;;;;;;30.50;10.73;;;-7.30;99.90;;;;;;4957832;28;20035;-76
2023/12/04 02:48:35;;;;;;;30.15;11.43;;;-7.10;99.90;;;;;;4959486;28;20023;-77
2023/12/04 02:51:02;;;;;;;29.08;11.70;;;-7.10;99.90;;;;;;4940573;28;20046;-77
2023/12/04 02:53:28;;;;;;;28.10;11.23;;;-7.10;99.90;;;;;;4959447;28;20035;-79
2023/12/04 02:55:54;;;;;;;29.15;11.50;;;-7.00;99.90;;;;;;4958367;28;20027;-83
2023/12/04 02:58:19;;;;;;;29.95;11.57;;;-7.00;99.90;;;;;;4957813;28;20027;-78
2023/12/04 03:00:45;;;;;;;27.48;11.35;;;-5.90;99.90;;;;;;4957644;28;20027;-79
2023/12/04 03:03:11;;;;;;;26.30;11.20;;;-6.80;99.90;;;;;;4957544;28;20102;-79
2023/12/04 03:05:36;;;;;;;26.90;11.18;;;-6.10;99.90;;;;;;4958354;28;20028;-79
2023/12/04 03:08:02;;;;;;;30.92;10.48;;;-5.70;99.90;;;;;;4957489;28;20027;-80
2023/12/04 03:10:28;;;;;;;30.63;11.35;;;-6.60;99.90;;;;;;4957424;28;20042;-78
2023/12/04 03:12:53;;;;;;;36.33;12.93;;;-6.60;99.90;;;;;;4958182;28;20019;-81
2023/12/04 03:15:19;;;;;;;31.40;11.93;;;-6.30;99.90;;;;;;4958485;28;20532;-82
2023/12/04 03:17:45;;;;;;;35.33;13.52;;;-4.60;99.90;;;;;;4940141;28;20588;-79
2023/12/04 03:20:11;;;;;;;33.58;12.25;;;-6.20;99.90;;;;;;4959514;28;20023;-79
2023/12/04 03:22:37;;;;;;;35.55;12.95;;;-4.90;99.90;;;;;;4964386;28;20350;-80
2023/12/04 03:25:03;;;;;;;42.28;13.15;;;-6.00;99.90;;;;;;4965384;28;20038;-76
2023/12/04 03:27:29;;;;;;;40.78;15.25;;;-5.90;99.90;;;;;;4946896;29;20023;-79
2023/12/04 03:29:54;;;;;;;34.47;12.77;;;-5.30;99.90;;;;;;4957239;28;20358;-80
2023/12/04 03:32:20;;;;;;;29.85;11.48;;;-5.70;99.90;;;;;;4944757;28;20031;-79
2023/12/04 03:34:46;;;;;;;42.75;13.73;;;-5.70;99.90;;;;;;4947059;29;20079;-79
2023/12/04 03:37:11;;;;;;;36.92;14.15;;;-5.60;99.90;;;;;;4947949;29;20070;-77
2023/12/04 03:39:37;;;;;;;38.63;13.25;;;-5.50;99.90;;;;;;4965910;28;20027;-76
2023/12/04 03:42:03;;;;;;;32.95;12.85;;;-5.40;99.90;;;;;;4947183;29;20019;-79
2023/12/04 03:44:28;;;;;;;33.70;13.60;;;-5.40;99.90;;;;;;4963270;28;20031;-79
2023/12/04 03:46:54;;;;;;;39.55;13.38;;;-5.30;99.90;;;;;;4948556;29;20311;-79
2023/12/04 03:49:20;;;;;;;40.45;15.52;;;-5.40;99.90;;;;;;4948584;29;20027;-79
2023/12/04 03:51:45;;;;;;;36.58;13.23;;;-4.50;99.90;;;;;;4948006;29;20163;-79
2023/12/04 03:54:13;;;;;;;35.45;13.90;;;-4.30;99.90;;;;;;4964696;28;20090;-79
2023/12/04 03:56:39;;;;;;;36.20;12.77;;;-5.10;99.90;;;;;;4948916;28;20019;-79
2023/12/04 03:59:05;;;;;;;41.00;12.95;;;-5.00;99.90;;;;;;4965949;28;20054;-78
2023/12/04 04:01:30;;;;;;;37.17;13.60;;;-5.00;99.90;;;;;;4965973;28;20204;-79
2023/12/04 04:03:56;;;;;;;40.35;13.90;;;-3.20;99.90;;;;;;4948386;29;20042;-79
2023/12/04 04:06:22;;;;;;;37.67;12.88;;;-5.00;99.90;;;;;;4956867;28;20027;-78
2023/12/04 04:08:48;;;;;;;45.03;14.82;;;-4.50;99.90;;;;;;4956393;28;20484;-80
2023/12/04 04:11:13;;;;;;;40.20;12.60;;;-5.00;99.90;;;;;;4939479;28;20444;-79
2023/12/04 04:13:39;;;;;;;36.67;14.68;;;-5.00;99.90;;;;;;4956262;28;20019;-79
2023/12/04 04:16:06;;;;;;;33.30;12.98;;;-3.80;99.90;;;;;;4943512;28;20031;-81
2023/12/04 04:18:32;;;;;;;42.08;12.68;;;-4.80;99.90;;;;;;4966165;28;20095;-83
2023/12/04 04:20:57;;;;;;;29.65;12.95;;;-4.80;99.90;;;;;;4965517;28;20031;-79
2023/12/04 04:23:23;;;;;;;35.58;13.13;;;-4.70;99.90;;;;;;4947644;28;20184;-80
2023/12/04 04:25:48;;;;;;;35.70;12.63;;;-4.80;99.90;;;;;;4965262;28;20082;-79
2023/12/04 04:28:14;;;;;;;33.65;13.13;;;-4.70;99.90;;;;;;4965669;28;20423;-76
2023/12/04 04:30:40;;;;;;;37.42;13.25;;;-3.10;99.90;;;;;;4948153;29;20039;-79
2023/12/04 04:33:05;;;;;;;38.78;13.48;;;-4.70;99.90;;;;;;4965226;28;20086;-80
2023/12/04 04:35:31;;;;;;;34.60;14.23;;;-4.60;99.90;;;;;;4947845;28;20034;-81
2023/12/04 04:37:57;;;;;;;39.30;14.50;;;-4.60;99.90;;;;;;4944324;28;20019;-82
2023/12/04 04:40:23;;;;;;;36.10;13.45;;;-4.50;99.90;;;;;;4964426;28;20035;-84
2023/12/04 04:42:48;;;;;;;34.03;12.30;;;-4.50;99.90;;;;;;4949204;28;20095;-80
2023/12/04 04:45:14;;;;;;;31.52;12.68;;;-3.20;99.90;;;;;;4966225;28;20047;-83
2023/12/04 04:47:40;;;;;;;33.45;14.23;;;-4.40;99.90;;;;;;4947662;29;20027;-81
2023/12/04 04:50:06;;;;;;;34.88;13.77;;;-4.50;99.90;;;;;;4956462;28;20042;-81
2023/12/04 04:52:32;;;;;;;32.47;12.32;;;-4.40;99.90;;;;;;4955560;28;20065;-80
2023/12/04 04:55:00;;;;;;;33.85;11.32;;;-4.20;99.90;;;;;;4938813;28;20023;-82
2023/12/04 04:57:25;;;;;;;33.88;13.70;;;-2.70;99.90;;;;;;4955965;28;20551;-77
2023/12/04 04:59:51;;;;;;;32.72;12.70;;;-4.20;99.90;;;;;;4955944;28;20052;-79
2023/12/04 05:02:17;;;;;;;34.28;13.85;;;-4.20;99.90;;;;;;4938835;28;20082;-80
2023/12/04 05:04:42;;;;;;;36.47;13.30;;;-4.30;99.90;;;;;;4955783;28;20062;-81
2023/12/04 05:07:08;;;;;;;41.03;13.95;;;-4.30;99.90;;;;;;4938663;28;20059;-83
2023/12/04 05:09:34;;;;;;;31.88;13.07;;;-4.30;99.90;;;;;;4955769;28;20432;-80
2023/12/04 05:11:59;;;;;;;37.25;12.45;;;-4.30;99.90;;;;;;4955999;28;20031;-78
2023/12/04 05:14:26;;;;;;;31.05;11.98;;;-4.30;99.90;;;;;;4955762;28;20472;-83
2023/12/04 05:16:52;;;;;;;35.42;14.63;;;-4.20;99.90;;;;;;4938763;28;20066;-81
2023/12/04 05:19:18;;;;;;;39.45;13.55;;;-4.00;99.90;;;;;;4938797;28;20027;-80
2023/12/04 05:21:43;;;;;;;34.50;13.32;;;-4.30;99.90;;;;;;4955672;28;20354;-80
2023/12/04 05:24:09;;;;;;;35.55;13.07;;;-4.30;99.90;;;;;;4938596;28;20027;-80
2023/12/04 05:26:35;;;;;;;39.85;13.13;;;-4.30;99.90;;;;;;4938442;28;20027;-80
2023/12/04 05:29:00;;;;;;;38.75;13.68;;;-4.20;99.90;;;;;;4938394;29;20037;-81
2023/12/04 05:31:26;;;;;;;31.33;12.07;;;-4.30;99.90;;;;;;4938470;28;20039;-83
2023/12/04 05:33:52;;;;;;;36.40;13.13;;;-4.30;99.90;;;;;;4955710;28;20497;-83
2023/12/04 05:36:17;;;;;;;34.83;12.10;;;-3.60;99.90;;;;;;4955422;28;20069;-76
2023/12/04 05:38:43;;;;;;;33.72;13.18;;;-4.20;99.90;;;;;;4938056;29;20119;-76
2023/12/04 05:41:09;;;;;;;34.85;13.15;;;-4.20;99.90;;;;;;4955578;28;20093;-77
2023/12/04 05:43:34;;;;;;;35.78;12.45;;;-4.10;99.90;;;;;;4955580;28;20177;-80
2023/12/04 05:46:00;;;;;;;38.15;12.32;;;-4.00;99.90;;;;;;4955499;28;20543;-81
2023/12/04 05:48:25;;;;;;;38.67;13.95;;;-4.00;99.90;;;;;;4955660;28;20106;-79
2023/12/04 05:50:51;;;;;;;39.70;13.38;;;-4.00;99.90;;;;;;4938414;29;20401;-81
2023/12/04 05:53:17;;;;;;;36.58;13.27;;;-4.00;99.90;;;;;;4936325;29;20039;-80
2023/12/04 05:55:43;;;;;;;33.63;13.27;;;-4.10;99.90;;;;;;4936507;29;20059;-81
2023/12/04 05:58:08;;;;;;;36.33;12.52;;;-4.00;99.90;;;;;;4936459;29;20465;-82
2023/12/04 06:00:34;;;;;;;37.83;14.43;;;-2.80;99.90;;;;;;4936344;29;20079;-80
2023/12/04 06:03:00;;;;;;;39.17;14.48;;;-3.60;99.90;;;;;;4936138;29;20030;-82
2023/12/04 06:05:25;;;;;;;40.97;14.80;;;-4.00;99.90;;;;;;4939097;29;20098;-80
2023/12/04 06:07:51;;;;;;;38.08;14.23;;;-4.10;99.90;;;;;;4939878;29;20048;-81
2023/12/04 06:10:17;;;;;;;37.88;12.90;;;-4.00;99.90;;;;;;4939560;29;20115;-83
2023/12/04 06:12:42;;;;;;;38.80;12.45;;;-4.00;99.90;;;;;;4938646;29;20392;-82
2023/12/04 06:15:08;;;;;;;39.20;13.35;;;-4.00;99.90;;;;;;4939733;29;20024;-82
2023/12/04 06:17:34;;;;;;;40.83;13.55;;;-4.00;99.90;;;;;;4938453;29;20032;-82
2023/12/04 06:20:00;;;;;;;43.10;13.35;;;-3.70;99.90;;;;;;4939517;29;20466;-83
2023/12/04 06:22:26;;;;;;;42.65;13.98;;;-3.90;99.90;;;;;;4940429;29;20028;-82
2023/12/04 06:24:52;;;;;;;32.67;13.27;;;-3.90;99.90;;;;;;4941339;29;20031;-80
2023/12/04 06:27:22;;;;;;;31.80;11.75;;;-3.80;99.90;;;;;;4939402;29;20031;-82
2023/12/04 06:29:49;;;;;;;32.58;12.10;;;-3.70;99.90;;;;;;4939330;29;20078;-82
2023/12/04 06:32:15;;;;;;;28.83;12.30;;;-3.60;99.90;;;;;;4939570;29;20039;-83
2023/12/04 06:34:41;;;;;;;32.63;11.45;;;-3.60;99.90;;;;;;4939299;29;20024;-81
2023/12/04 06:37:11;;;;;;;34.33;12.15;;;-3.70;99.90;;;;;;4922128;29;20175;-82
2023/12/04 06:39:38;;;;;;;37.75;12.55;;;-3.70;99.90;;;;;;4938917;29;20028;-78
2023/12/04 06:42:08;;;;;;;32.78;12.68;;;-3.70;99.90;;;;;;4938998;29;20030;-80
2023/12/04 06:44:34;;;;;;;35.88;12.68;;;-3.70;99.90;;;;;;4939152;29;20510;-80
2023/12/04 06:47:01;;;;;;;38.83;14.05;;;-3.80;99.90;;;;;;4939054;29;20421;-80
2023/12/04 06:49:32;;;;;;;38.15;13.57;;;-3.70;99.90;;;;;;4939077;29;20035;-80
2023/12/04 06:51:59;;;;;;;43.65;13.82;;;-3.70;99.90;;;;;;4935984;28;20058;-80
2023/12/04 06:54:24;;;;;;;37.28;15.70;;;-3.60;99.90;;;;;;4958457;28;20019;-81
2023/12/04 06:56:50;;;;;;;34.72;13.90;;;-2.60;99.90;;;;;;4957947;28;20086;-80
2023/12/04 06:59:18;;;;;;;30.67;11.35;;;-3.60;99.90;;;;;;4956703;28;20053;-81
2023/12/04 07:01:43;;;;;;;42.03;12.68;;;-3.60;99.90;;;;;;4958083;28;20110;-80
2023/12/04 07:04:10;;;;;;;45.15;14.25;;;-3.70;99.90;;;;;;4957923;28;20059;-79
2023/12/04 07:06:37;;;;;;;33.40;10.52;;;-3.70;99.90;;;;;;4957838;28;20024;-81
2023/12/04 07:09:03;;;;;;;36.00;14.40;;;-3.70;99.90;;;;;;4957940;28;20062;-80
2023/12/04 07:11:29;;;;;;;38.08;15.05;;;-3.70;99.90;;;;;;4957755;28;20070;-79
2023/12/04 07:13:55;;;;;;;34.20;12.20;;;-3.70;99.90;;;;;;4956204;28;20046;-80
2023/12/04 07:16:21;;;;;;;44.15;14.93;;;-2.50;99.90;;;;;;4955926;28;20473;-78
2023/12/04 07:18:46;;;;;;;44.45;14.20;;;-3.60;99.90;;;;;;4956093;28;20093;-78
2023/12/04 07:21:12;;;;;;;34.08;12.10;;;-3.60;99.90;;;;;;4956170;28;20055;-80
2023/12/04 07:23:37;;;;;;;42.30;14.93;;;-2.50;99.90;;;;;;4957086;28;20445;-78
2023/12/04 07:26:04;;;;;;;41.55;13.38;;;-3.60;99.90;;;;;;4971938;28;20484;-78
2023/12/04 07:28:30;;;;;;;38.50;13.55;;;-3.50;99.90;;;;;;4955839;28;20113;-79
2023/12/04 07:30:55;;;;;;;42.00;14.85;;;-1.80;99.90;;;;;;4971824;28;20130;-80
2023/12/04 07:33:21;;;;;;;42.03;14.45;;;-3.40;99.90;;;;;;4957163;28;20027;-79
2023/12/04 07:35:47;;;;;;;38.83;14.50;;;-3.30;99.90;;;;;;4957141;28;20034;-80
2023/12/04 07:38:13;;;;;;;40.30;14.95;;;-3.30;99.90;;;;;;4957148;28;20535;-79
2023/12/04 07:40:38;;;;;;;41.50;14.13;;;-3.20;99.90;;;;;;4957012;28;20031;-80
2023/12/04 07:43:04;;;;;;;38.97;13.63;;;-3.10;99.90;;;;;;4957348;28;20027;-79
2023/12/04 07:45:30;;;;;;;33.22;13.73;;;-3.10;99.90;;;;;;4957006;28;20076;-80
2023/12/04 07:47:55;;;;;;;41.45;13.27;;;-2.40;99.90;;;;;;4957012;28;20108;-79
2023/12/04 07:50:21;;;;;;;38.33;14.60;;;-3.10;99.90;;;;;;4956588;28;20447;-79
2023/12/04 07:52:47;;;;;;;38.80;15.25;;;-3.30;99.90;;;;;;4956576;28;20043;-78
2023/12/04 07:55:12;;;;;;;40.85;13.30;;;-3.10;99.90;;;;;;4957036;28;20468;-77
2023/12/04 07:57:38;;;;;;;47.97;16.83;;;-3.30;99.90;;;;;;4956568;28;20019;-77
2023/12/04 08:00:04;;;;;;;44.10;14.45;;;-3.40;99.90;;;;;;4956558;28;20027;-79
2023/12/04 08:02:30;;;;;;;38.72;13.27;;;-3.40;99.90;;;;;;4939302;28;20027;-82
2023/12/04 08:04:56;;;;;;;44.97;13.32;;;-3.00;99.90;;;;;;4956479;28;20031;-79
2023/12/04 08:07:22;;;;;;;30.85;11.35;;;-3.10;99.90;;;;;;4956422;28;20595;-79
2023/12/04 08:09:47;;;;;;;40.50;14.10;;;-2.00;99.90;;;;;;4939090;28;20031;-80
2023/12/04 08:12:14;;;;;;;43.33;15.38;;;-3.10;99.90;;;;;;4956541;28;20106;-78
2023/12/04 08:14:40;;;;;;;37.83;14.13;;;-1.80;99.90;;;;;;4956356;28;20027;-79
2023/12/04 08:17:06;;;;;;;40.88;13.05;;;-3.00;99.90;;;;;;4956453;28;20472;-81
2023/12/04 08:19:32;;;;;;;39.72;14.90;;;-3.00;99.90;;;;;;4956261;28;20416;-78
2023/12/04 08:21:58;;;;;;;44.42;14.93;;;-3.00;99.90;;;;;;4956251;28;20465;-78
2023/12/04 08:24:24;;;;;;;44.38;13.82;;;-3.00;99.90;;;;;;4956414;28;20386;-78
2023/12/04 08:26:50;;;;;;;35.88;13.20;;;-2.90;99.90;;;;;;4955809;28;20027;-78
2023/12/04 08:29:17;;;;;;;33.53;10.52;;;-2.80;99.90;;;;;;4956093;28;20109;-79
2023/12/04 08:31:43;;;;;;;36.38;11.05;;;-2.80;99.90;;;;;;4956049;28;20062;-81
2023/12/04 08:34:09;;;;;;;40.13;13.82;;;-2.90;99.90;;;;;;4938965;28;20461;-79
2023/12/04 08:36:34;;;;;;;52.85;15.07;;;-2.70;99.90;;;;;;4955955;28;20027;-81
2023/12/04 08:39:00;;;;;;;42.88;15.57;;;-1.10;99.90;;;;;;4955934;29;20023;-78
2023/12/04 08:41:28;;;;;;;37.05;14.65;;;-2.10;99.90;;;;;;4938869;28;20055;-80
2023/12/04 08:43:54;;;;;;;36.00;13.77;;;-2.40;99.90;;;;;;4956298;28;20491;-78
2023/12/04 08:46:20;;;;;;;38.42;14.38;;;-1.00;99.90;;;;;;4955798;28;20028;-77
2023/12/04 08:48:46;;;;;;;37.50;13.15;;;-2.10;99.90;;;;;;4938562;29;20024;-78
2023/12/04 08:51:16;;;;;;;36.55;14.50;;;-2.00;99.90;;;;;;4955502;28;20063;-81
2023/12/04 08:53:42;;;;;;;41.40;14.82;;;-1.90;99.90;;;;;;4955862;28;20131;-79
2023/12/04 08:56:09;;;;;;;38.92;13.93;;;-1.80;99.90;;;;;;4938662;28;20038;-78
2023/12/04 08:58:34;;;;;;;43.53;16.52;;;-1.90;99.90;;;;;;4955794;28;20098;-78
2023/12/04 09:01:00;;;;;;;40.88;13.57;;;-1.70;99.90;;;;;;4955654;28;20110;-78
2023/12/04 09:03:26;;;;;;;39.42;12.73;;;-1.90;99.90;;;;;;4955468;28;20098;-79
2023/12/04 09:05:51;;;;;;;35.92;13.85;;;-1.10;99.90;;;;;;4955594;28;20023;-79
2023/12/04 09:08:21;;;;;;;42.70;13.93;;;-1.50;99.90;;;;;;4955574;28;20074;-78
2023/12/04 09:10:47;;;;;;;38.88;12.50;;;-1.50;99.90;;;;;;4955594;28;20038;-80
2023/12/04 09:13:14;;;;;;;36.65;14.95;;;-1.60;99.90;;;;;;4955532;28;20031;-79
2023/12/04 09:15:39;;;;;;;45.97;15.05;;;-1.80;99.90;;;;;;4955427;28;20035;-79
2023/12/04 09:18:05;;;;;;;43.08;14.68;;;-1.80;99.90;;;;;;4938326;28;20023;-79
2023/12/04 09:20:31;;;;;;;36.92;13.82;;;-0.50;99.90;;;;;;4955468;28;20024;-79
2023/12/04 09:22:56;;;;;;;37.45;13.02;;;-1.10;99.90;;;;;;4955472;28;20031;-79
2023/12/04 09:25:22;;;;;;;37.65;13.32;;;-1.60;99.90;;;;;;4955419;28;20031;-79
2023/12/04 09:27:48;;;;;;;38.92;14.43;;;-0.50;99.90;;;;;;4955616;28;20029;-80
2023/12/04 09:30:14;;;;;;;38.50;14.05;;;-1.60;99.90;;;;;;4955519;28;20031;-79
2023/12/04 09:32:40;;;;;;;35.92;16.33;;;-1.60;99.90;;;;;;4955500;28;20027;-77
2023/12/04 09:35:06;;;;;;;36.38;15.70;;;-1.40;99.90;;;;;;4955282;28;20027;-75
2023/12/04 09:37:32;;;;;;;37.55;13.18;;;-1.40;99.90;;;;;;4955254;28;20563;-75
2023/12/04 09:39:57;;;;;;;32.72;13.27;;;-1.30;99.90;;;;;;4957505;28;20058;-76
2023/12/04 09:42:23;;;;;;;38.42;14.60;;;-1.60;99.90;;;;;;4958830;28;20034;-76
2023/12/04 09:44:55;;;;;;;34.95;14.45;;;-1.80;99.90;;;;;;4958933;28;20030;-76
2023/12/04 09:47:22;;;;;;;40.05;14.10;;;-1.80;99.90;;;;;;4958771;28;20028;-75
2023/12/04 09:49:51;;;;;;;32.10;13.05;;;-1.80;99.90;;;;;;4958792;28;20083;-75
2023/12/04 09:52:18;;;;;;;28.88;9.85;;;-1.40;99.90;;;;;;4958527;28;20518;-75
2023/12/04 09:54:44;;;;;;;31.85;10.25;;;-1.80;99.90;;;;;;4958761;28;20469;-75
2023/12/04 09:57:10;;;;;;;41.35;14.55;;;-1.20;99.90;;;;;;4958709;28;20031;-75
2023/12/04 09:59:36;;;;;;;40.05;14.68;;;-1.60;99.90;;;;;;4958511;28;20477;-75
2023/12/04 10:02:02;;;;;;;39.17;14.63;;;-1.60;99.90;;;;;;4958609;28;20055;-76
2023/12/04 10:04:28;;;;;;;41.17;16.58;;;-1.40;99.90;;;;;;4958642;28;20493;-76
2023/12/04 10:06:54;;;;;;;40.58;15.48;;;-0.70;99.90;;;;;;4958468;28;20058;-75
2023/12/04 10:09:22;;;;;;;45.25;14.50;;;-1.30;99.90;;;;;;4958471;28;20046;-75
2023/12/04 10:11:50;;;;;;;32.17;13.23;;;-1.10;99.90;;;;;;4958327;28;20042;-75
2023/12/04 10:14:18;;;;;;;28.90;12.80;;;-1.00;99.90;;;;;;4958434;28;20432;-75
2023/12/04 10:16:44;;;;;;;39.70;14.38;;;-0.50;99.90;;;;;;4958395;28;20024;-76
2023/12/04 10:19:25;;;;;;;46.20;17.25;;;-0.80;99.90;;;;;;4958153;28;20027;-75
2023/12/04 10:21:52;;;;;;;35.72;15.57;;;-1.00;99.90;;;;;;4958194;28;20019;-74
2023/12/04 10:24:39;;;;;;;37.90;15.00;;;-0.90;99.90;;;;;;4958222;28;20031;-79
2023/12/04 10:27:09;;;;;;;38.20;16.05;;;-1.00;99.90;;;;;;4958671;28;20066;-80
2023/12/04 10:29:47;;;;;;;35.42;14.77;;;-0.80;99.90;;;;;;4958414;28;20082;-80
2023/12/04 10:32:13;;;;;;;31.45;13.85;;;-0.60;99.90;;;;;;4958957;28;20028;-79
2023/12/04 10:34:42;;;;;;;41.65;14.43;;;-0.40;99.90;;;;;;4958620;28;20035;-80
2023/12/04 10:37:10;;;;;;;39.10;14.40;;;-0.30;99.90;;;;;;4958280;28;20019;-79
2023/12/04 10:39:55;;;;;;;41.85;14.63;;;0.60;99.90;;;;;;4958552;28;20058;-76
2023/12/04 10:42:29;;;;;;;43.40;14.68;;;0.00;99.90;;;;;;4958053;28;20039;-80
2023/12/04 10:44:58;;;;;;;32.97;15.27;;;0.00;99.90;;;;;;4958396;28;20023;-83
2023/12/04 10:47:25;;;;;;;33.65;14.52;;;0.00;99.90;;;;;;4958180;28;20035;-80
2023/12/04 10:49:52;;;;;;;35.88;14.15;;;0.20;99.90;;;;;;4957772;28;20123;-80
2023/12/04 10:52:24;;;;;;;34.85;15.13;;;-0.30;99.90;;;;;;4958176;28;20203;-80
2023/12/04 10:54:50;;;;;;;38.40;13.43;;;-0.10;99.90;;;;;;4958154;28;20023;-81
2023/12/04 10:57:28;;;;;;;27.75;11.50;;;-0.40;99.90;;;;;;4958015;28;20408;-81
2023/12/04 10:59:57;;;;;;;31.20;12.45;;;-0.50;99.90;;;;;;4958106;28;20027;-80
2023/12/04 11:02:27;;;;;;;33.22;12.52;;;-0.10;99.90;;;;;;4958327;28;20027;-81
2023/12/04 11:04:58;;;;;;;32.42;13.15;;;-0.30;99.90;;;;;;4958255;28;20027;-79
2023/12/04 11:07:27;;;;;;;39.92;14.05;;;-0.20;99.90;;;;;;4959692;28;20469;-80
2023/12/04 11:09:55;;;;;;;28.10;12.45;;;0.10;99.90;;;;;;4959608;28;20380;-80
2023/12/04 11:12:22;;;;;;;30.27;14.57;;;0.20;99.90;;;;;;4958121;28;20027;-79
2023/12/04 11:14:56;;;;;;;35.05;12.32;;;0.30;99.90;;;;;;4957507;28;20023;-79
2023/12/04 11:17:24;;;;;;;29.10;10.98;;;0.40;99.90;;;;;;4956298;28;20027;-79
2023/12/04 11:19:55;;;;;;;30.03;13.10;;;1.00;99.90;;;;;;4957553;28;20023;-76
2023/12/04 11:22:22;;;;;;;29.63;11.70;;;0.20;99.90;;;;;;4940193;28;20051;-76
2023/12/04 11:24:50;;;;;;;40.67;14.23;;;0.40;99.90;;;;;;4957382;28;20034;-78
2023/12/04 11:27:19;;;;;;;38.92;15.02;;;0.10;99.90;;;;;;4940091;28;20019;-80
2023/12/04 11:29:47;;;;;;;27.33;12.10;;;0.10;99.90;;;;;;4957091;28;20039;-79
2023/12/04 11:32:16;;;;;;;28.45;13.18;;;0.20;99.90;;;;;;4957136;28;20380;-79
2023/12/04 11:34:49;;;;;;;28.25;11.70;;;0.60;99.90;;;;;;4957180;28;20511;-79
2023/12/04 11:37:15;;;;;;;28.77;12.07;;;0.10;99.90;;;;;;4957149;28;20034;-79
2023/12/04 11:39:41;;;;;;;26.73;12.15;;;0.50;99.90;;;;;;4957035;28;20027;-79
2023/12/04 11:42:07;;;;;;;27.33;12.25;;;0.50;99.90;;;;;;4957137;28;20061;-79
2023/12/04 11:44:33;;;;;;;28.02;12.88;;;0.60;99.90;;;;;;4957078;28;20051;-80
2023/12/04 11:47:06;;;;;;;29.33;12.55;;;0.60;99.90;;;;;;4956867;28;20484;-75
2023/12/04 11:49:32;;;;;;;38.83;16.45;;;0.80;99.90;;;;;;4956634;28;20027;-77
2023/12/04 11:52:04;;;;;;;42.42;14.55;;;0.80;99.90;;;;;;4956614;28;20078;-78
2023/12/04 11:55:05;;;;;;;32.97;12.55;;;0.80;99.90;;;;;;4956862;28;20023;-78
2023/12/04 11:57:38;;;;;;;32.08;13.43;;;1.00;99.90;;;;;;4956741;28;20023;-77
2023/12/04 12:00:18;;;;;;;31.67;12.43;;;1.10;99.90;;;;;;4956549;28;20369;-78
2023/12/04 12:02:54;;;;;;;27.45;12.18;;;1.20;99.90;;;;;;4938726;28;20062;-78
2023/12/04 12:05:21;;;;;;;27.15;11.52;;;1.00;99.90;;;;;;4956540;29;20473;-78
2023/12/04 12:07:47;;;;;;;33.80;11.80;;;1.20;99.90;;;;;;4956296;28;20366;-78
2023/12/04 12:10:13;;;;;;;26.63;11.15;;;1.50;99.90;;;;;;4956212;28;20069;-78
2023/12/04 12:12:44;;;;;;;29.58;11.35;;;1.50;99.90;;;;;;4956495;28;20117;-77
2023/12/04 12:15:11;;;;;;;31.17;12.50;;;1.70;99.90;;;;;;4957197;28;20388;-78
2023/12/04 12:17:40;;;;;;;33.83;13.30;;;1.60;99.90;;;;;;4956935;28;20035;-75
2023/12/04 12:20:11;;;;;;;42.85;17.05;;;1.70;99.90;;;;;;4957982;28;20031;-75
2023/12/04 12:22:41;;;;;;;31.58;13.27;;;1.50;99.90;;;;;;4944614;29;20031;-75
2023/12/04 12:25:11;;;;;;;32.08;14.73;;;1.60;99.90;;;;;;4956340;28;20470;-75